Darstellungsparameter: Aktuell verwendete Einstellungen:
Skalierung der Graphiken ... ?
xyx+y,   Skalierungsfaktor:      Skalierung: Modus: x, Faktor: 1
Darstellungszeitraum ... ?
Vom - - bis: - -   Zeitraum: 27.06.2010 - 28.06.2010
Min/Max/Avg-Anzeige ... ?
Zeige MMA aktuell
Zeige MMA Monat
Zeige MMA alles
Zeige --A aktuell
Zeige --A Monat
Zeige --A alles
Keine MMA-Anzeige
MMA:
Average (ber die Originaldaten)
MMA-Basis: 27.06.2010 - 28.06.2010
Quicknavigation für Darstellung... ?
Tage:      1T, 2T, 3T, 5T -1T -2T -3T -5T +1T +2T +3T +5T
Wochen: 1W, 2W, 3W -1W -2W -3W +1W +2W +3W
Monate: 1M, 3M, 6M -1M -3M -6M +1M +3M +6M
Jahre:    1J, 3J, 5J, 10J -1J -3J -5J -10J +1J +3J +5J +10J
Nutze für die Darstellung ... ?
Originaldaten oder Mittelwerte auf ...
Stundenbasis Tagesbasis Wochenbasis
Monatsbasis Jahresbasis      Datenbasis: Original-Daten
Darstellen als:
Statistik (Auto) Statistik J:M      Darstellung:
Zur Graphik,    zurück zur Übersicht aller Sensoren.
 
Tabellarische Datenbersicht: ?
 
Sensor: Nr:Datum:Temp:Abs-Feuchte:Windchill:Wind:
Aussen-T/F 1 27-06-2010 00:09:01 20.7 C 7.74 g/m*3 20.7 C 0 km/h
2 27-06-2010 00:21:01 20.5 C 8.01 g/m*3 20.5 C 0 km/h
3 27-06-2010 00:33:02 20 C 7.95 g/m*3 20 C 0 km/h
4 27-06-2010 00:45:01 19.7 C 7.98 g/m*3 19.7 C 0 km/h
5 27-06-2010 00:57:01 19.5 C 8.06 g/m*3 19.5 C 0 km/h
6 27-06-2010 01:09:02 19.4 C 8.18 g/m*3 19.4 C 0 km/h
7 27-06-2010 01:21:01 18.9 C 8.26 g/m*3 18.9 C 0 km/h
8 27-06-2010 01:33:01 18.7 C 8.33 g/m*3 18.7 C 0 km/h
9 27-06-2010 01:45:01 18.5 C 8.39 g/m*3 18.5 C 0 km/h
10 27-06-2010 01:57:01 18.3 C 8.44 g/m*3 18.3 C 0 km/h
11 27-06-2010 02:09:01 18.1 C 8.34 g/m*3 18.1 C 0 km/h
12 27-06-2010 02:21:01 17.7 C 8.6 g/m*3 17.7 C 0 km/h
13 27-06-2010 02:33:01 17.5 C 8.65 g/m*3 17.5 C 0 km/h
14 27-06-2010 02:46:10 17.3 C 8.54 g/m*3 17.3 C 0 km/h
15 27-06-2010 02:58:10 17.2 C 8.79 g/m*3 17.2 C 0 km/h
16 27-06-2010 03:10:11 17 C 8.68 g/m*3 17 C 0 km/h
17 27-06-2010 03:22:11 16.9 C 8.77 g/m*3 16.9 C 0 km/h
18 27-06-2010 03:34:02 16.7 C 8.95 g/m*3 16.7 C 0 km/h
19 27-06-2010 03:46:02 16.4 C 8.79 g/m*3 16.4 C 0 km/h
20 27-06-2010 03:58:02 16.2 C 8.96 g/m*3 16.2 C 0 km/h
21 27-06-2010 04:10:02 16.1 C 8.77 g/m*3 16.1 C 0 km/h
22 27-06-2010 04:22:03 16 C 8.99 g/m*3 16 C 0 km/h
23 27-06-2010 04:34:03 15.8 C 8.88 g/m*3 15.8 C 0 km/h
24 27-06-2010 04:46:01 15.5 C 8.86 g/m*3 15.5 C 0 km/h
25 27-06-2010 04:58:02 15.4 C 8.93 g/m*3 15.4 C 0 km/h
Sensor: Nr:Datum:Temp:Abs-Feuchte:Windchill:Wind:
Aussen-T/F 26 27-06-2010 05:10:01 15.2 C 8.83 g/m*3 15.2 C 0 km/h
27 27-06-2010 05:22:01 15.1 C 8.77 g/m*3 15.1 C 0 km/h
28 27-06-2010 05:34:01 15.1 C 8.9 g/m*3 15.1 C 0 km/h
29 27-06-2010 05:46:02 14.9 C 9.05 g/m*3 14.9 C 0 km/h
30 27-06-2010 05:58:02 14.9 C 9.05 g/m*3 14.9 C 0 km/h
31 27-06-2010 06:10:02 14.9 C 9.05 g/m*3 14.9 C 0 km/h
32 27-06-2010 06:22:01 15 C 9.1 g/m*3 15 C 0 km/h
33 27-06-2010 06:34:02 15 C 9.1 g/m*3 15 C 0 km/h
34 27-06-2010 06:46:02 14.9 C 9.3 g/m*3 14.9 C 0 km/h
35 27-06-2010 06:58:02 14.9 C 9.43 g/m*3 14.9 C 0 km/h
36 27-06-2010 07:10:02 14.8 C 9.37 g/m*3 14.8 C 0 km/h
37 27-06-2010 07:22:01 15.1 C 9.29 g/m*3 15.1 C 0 km/h
38 27-06-2010 07:34:02 15.4 C 9.46 g/m*3 15.4 C 0 km/h
39 27-06-2010 07:46:01 15.6 C 9.31 g/m*3 15.6 C 0 km/h
40 27-06-2010 07:58:01 15.9 C 9.34 g/m*3 15.9 C 0 km/h
41 27-06-2010 08:10:02 16.2 C 9.38 g/m*3 16.2 C 0 km/h
42 27-06-2010 08:22:01 16.6 C 9.32 g/m*3 16.6 C 0 km/h
43 27-06-2010 08:34:01 16.9 C 9.21 g/m*3 16.9 C 0 km/h
44 27-06-2010 08:46:01 17.5 C 9.24 g/m*3 17.5 C 0 km/h
45 27-06-2010 08:58:01 18 C 9.06 g/m*3 18 C 0 km/h
46 27-06-2010 09:10:02 18.6 C 9.23 g/m*3 18.6 C 0 km/h
47 27-06-2010 09:22:02 19.5 C 9.4 g/m*3 19.5 C 0 km/h
48 27-06-2010 09:34:01 20.5 C 9.79 g/m*3 20.5 C 0 km/h
49 27-06-2010 09:46:02 21.3 C 9.32 g/m*3 21.3 C 0 km/h
50 27-06-2010 09:58:02 21.8 C 9.21 g/m*3 21.8 C 0 km/h
Sensor: Nr:Datum:Temp:Abs-Feuchte:Windchill:Wind:
Aussen-T/F 51 27-06-2010 10:10:01 22.5 C 9.19 g/m*3 22.5 C 0 km/h
52 27-06-2010 10:22:02 23.7 C 9.41 g/m*3 23.7 C 0 km/h
53 27-06-2010 10:34:01 24.4 C 8.9 g/m*3 24.4 C 0 km/h
54 27-06-2010 10:46:02 24.8 C 8.42 g/m*3 24.8 C 0 km/h
55 27-06-2010 10:58:02 25.4 C 8.48 g/m*3 25.4 C 0 km/h
56 27-06-2010 11:10:02 25.6 C 8.09 g/m*3 25.6 C 0 km/h
57 27-06-2010 11:22:02 26.1 C 7.83 g/m*3 26.1 C 0 km/h
58 27-06-2010 11:34:01 27.3 C 8.11 g/m*3 27.3 C 0 km/h
59 27-06-2010 11:46:02 28 C 7.61 g/m*3 28 C 0 km/h
60 27-06-2010 11:58:02 29.1 C 7.22 g/m*3 29.1 C 0 km/h
61 27-06-2010 12:10:01 29.8 C 6.6 g/m*3 29.8 C 0 km/h
62 27-06-2010 12:22:01 29.7 C 6.27 g/m*3 29.7 C 0 km/h
63 27-06-2010 12:34:01 30.7 C 6.3 g/m*3 30.7 C 0 km/h
64 27-06-2010 12:46:02 31.3 C 6.5 g/m*3 31.3 C 0 km/h
65 27-06-2010 12:58:02 31.4 C 6.54 g/m*3 31.4 C 0 km/h
66 27-06-2010 13:10:02 31.4 C 6.54 g/m*3 31.4 C 0 km/h
67 27-06-2010 13:22:02 32 C 6.75 g/m*3 32 C 0 km/h
68 27-06-2010 13:34:03 32.4 C 6.9 g/m*3 32.4 C 0 km/h
69 27-06-2010 13:46:02 32.2 C 6.82 g/m*3 32.2 C 0 km/h
70 27-06-2010 13:58:02 31.5 C 6.57 g/m*3 31.5 C 0 km/h
71 27-06-2010 14:10:02 31.4 C 6.54 g/m*3 31.4 C 0 km/h
72 27-06-2010 14:22:01 31.3 C 6.5 g/m*3 31.3 C 0 km/h
73 27-06-2010 14:34:02 31.3 C 6.5 g/m*3 31.3 C 0 km/h
74 27-06-2010 14:46:02 31.3 C 6.5 g/m*3 31.3 C 0 km/h
75 27-06-2010 14:58:02 31.4 C 6.54 g/m*3 31.4 C 0 km/h
Sensor: Nr:Datum:Temp:Abs-Feuchte:Windchill:Wind:
Aussen-T/F 76 27-06-2010 15:10:02 32 C 6.75 g/m*3 32 C 0 km/h
77 27-06-2010 15:22:01 32.4 C 6.9 g/m*3 32.4 C 0 km/h
78 27-06-2010 15:34:02 32.5 C 6.93 g/m*3 32.5 C 0 km/h
79 27-06-2010 15:46:02 32.7 C 7.01 g/m*3 32.7 C 0 km/h
80 27-06-2010 15:58:02 32.6 C 6.97 g/m*3 32.6 C 0 km/h
81 27-06-2010 16:10:02 33 C 7.12 g/m*3 33 C 0 km/h
82 27-06-2010 16:22:02 32.8 C 7.04 g/m*3 32.8 C 0 km/h
83 27-06-2010 16:34:02 33.1 C 7.16 g/m*3 33.1 C 0 km/h
84 27-06-2010 16:46:02 33.3 C 7.23 g/m*3 33.3 C 0 km/h
85 27-06-2010 16:58:02 33.3 C 7.23 g/m*3 33.3 C 0 km/h
86 27-06-2010 17:10:02 33.5 C 7.31 g/m*3 33.5 C 0 km/h
87 27-06-2010 17:22:02 32.8 C 7.04 g/m*3 32.8 C 0 km/h
88 27-06-2010 17:34:02 33.4 C 7.27 g/m*3 33.4 C 0 km/h
89 27-06-2010 17:46:02 33.1 C 7.16 g/m*3 33.1 C 0 km/h
90 27-06-2010 17:58:02 33.5 C 7.31 g/m*3 33.5 C 0 km/h
91 27-06-2010 18:10:02 33.6 C 7.35 g/m*3 33.6 C 0 km/h
92 27-06-2010 18:22:02 33.8 C 7.43 g/m*3 33.8 C 0 km/h
93 27-06-2010 18:34:02 33.6 C 7.35 g/m*3 33.6 C 0 km/h
94 27-06-2010 18:46:02 33.7 C 7.39 g/m*3 33.7 C 0 km/h
95 27-06-2010 18:58:02 33.9 C 7.46 g/m*3 33.9 C 0 km/h
96 27-06-2010 19:10:02 33.8 C 7.43 g/m*3 33.8 C 0 km/h
97 27-06-2010 19:22:02 33.5 C 7.31 g/m*3 33.5 C 0 km/h
98 27-06-2010 19:34:02 33.4 C 7.27 g/m*3 33.4 C 0 km/h
99 27-06-2010 19:46:02 33.3 C 7.23 g/m*3 33.3 C 0 km/h
100 27-06-2010 19:58:02 32.9 C 7.08 g/m*3 32.9 C 0 km/h
Sensor: Nr:Datum:Temp:Abs-Feuchte:Windchill:Wind:
Aussen-T/F 101 27-06-2010 20:10:02 32.6 C 6.97 g/m*3 32.6 C 0 km/h
102 27-06-2010 20:22:02 31.9 C 6.72 g/m*3 31.9 C 0 km/h
103 27-06-2010 20:34:02 31.5 C 6.57 g/m*3 31.5 C 0 km/h
104 27-06-2010 20:46:02 31 C 6.4 g/m*3 31 C 0 km/h
105 27-06-2010 20:58:02 30.3 C 6.47 g/m*3 30.3 C 0 km/h
106 27-06-2010 21:10:02 29.2 C 6.97 g/m*3 29.2 C 0 km/h
107 27-06-2010 21:22:02 27.6 C 7.18 g/m*3 27.6 C 0 km/h
108 27-06-2010 21:34:02 26.6 C 7.05 g/m*3 26.6 C 0 km/h
109 27-06-2010 21:46:01 25.9 C 7.51 g/m*3 25.9 C 0 km/h
110 27-06-2010 21:58:01 25.3 C 7.26 g/m*3 25.3 C 0 km/h
111 27-06-2010 22:10:01 24.8 C 7.28 g/m*3 24.8 C 0 km/h
112 27-06-2010 22:22:01 24.3 C 7.3 g/m*3 24.3 C 0 km/h
113 27-06-2010 22:34:02 24.3 C 7.52 g/m*3 24.3 C 0 km/h
114 27-06-2010 22:46:02 23.9 C 7.57 g/m*3 23.9 C 0 km/h
115 27-06-2010 22:58:02 23.7 C 7.7 g/m*3 23.7 C 0 km/h
116 27-06-2010 23:11:02 23.5 C 8.04 g/m*3 23.5 C 0 km/h
117 27-06-2010 23:23:02 23 C 7.6 g/m*3 23 C 0 km/h
118 27-06-2010 23:35:02 22.5 C 7.99 g/m*3 22.5 C 0 km/h
119 27-06-2010 23:47:02 22.3 C 8.1 g/m*3 22.3 C 0 km/h
120 27-06-2010 23:59:02 22 C 7.96 g/m*3 22 C 0 km/h
121 28-06-2010 00:11:02 21.6 C 8.35 g/m*3 21.6 C 0 km/h
122 28-06-2010 00:23:02 21.3 C 8.2 g/m*3 21.3 C 0 km/h
123 28-06-2010 00:35:03 21 C 8.06 g/m*3 21 C 0 km/h
124 28-06-2010 00:47:03 20.8 C 8.15 g/m*3 20.8 C 0 km/h
125 28-06-2010 00:59:03 20.3 C 8.27 g/m*3 20.3 C 0 km/h
Sensor: Nr:Datum:Temp:Abs-Feuchte:Windchill:Wind:
Aussen-T/F 126 28-06-2010 01:11:03 20 C 7.95 g/m*3 20 C 0 km/h
127 28-06-2010 01:23:03 20 C 8.3 g/m*3 20 C 0 km/h
128 28-06-2010 01:35:03 19.9 C 8.25 g/m*3 19.9 C 0 km/h
129 28-06-2010 01:47:03 19.6 C 8.1 g/m*3 19.6 C 0 km/h
130 28-06-2010 01:59:03 19.4 C 8.34 g/m*3 19.4 C 0 km/h
131 28-06-2010 02:11:03 18.9 C 8.59 g/m*3 18.9 C 0 km/h
132 28-06-2010 02:23:03 18.9 C 8.59 g/m*3 18.9 C 0 km/h
133 28-06-2010 02:35:03 18.8 C 8.7 g/m*3 18.8 C 0 km/h
134 28-06-2010 02:47:03 18.5 C 8.7 g/m*3 18.5 C 0 km/h
135 28-06-2010 02:59:03 18.4 C 8.65 g/m*3 18.4 C 0 km/h
136 28-06-2010 03:11:03 18.1 C 8.65 g/m*3 18.1 C 0 km/h
137 28-06-2010 03:23:03 17.9 C 8.7 g/m*3 17.9 C 0 km/h
138 28-06-2010 03:35:03 17.8 C 8.8 g/m*3 17.8 C 0 km/h
139 28-06-2010 03:47:03 17.6 C 8.85 g/m*3 17.6 C 0 km/h
140 28-06-2010 03:59:03 17.5 C 8.8 g/m*3 17.5 C 0 km/h
141 28-06-2010 04:11:03 17.1 C 8.88 g/m*3 17.1 C 0 km/h
142 28-06-2010 04:23:03 17 C 8.97 g/m*3 17 C 0 km/h
143 28-06-2010 04:35:04 16.8 C 9.01 g/m*3 16.8 C 0 km/h
144 28-06-2010 04:47:04 16.6 C 9.18 g/m*3 16.6 C 0 km/h
145 28-06-2010 04:59:04 16.4 C 9.07 g/m*3 16.4 C 0 km/h
146 28-06-2010 05:11:04 16.3 C 9.16 g/m*3 16.3 C 0 km/h
147 28-06-2010 05:23:04 16 C 9.26 g/m*3 16 C 0 km/h
148 28-06-2010 05:35:04 16 C 9.26 g/m*3 16 C 0 km/h
149 28-06-2010 05:47:04 16 C 9.13 g/m*3 16 C 0 km/h
150 28-06-2010 05:59:04 16.2 C 9.24 g/m*3 16.2 C 0 km/h
Sensor: Nr:Datum:Temp:Abs-Feuchte:Windchill:Wind:
Aussen-T/F 151 28-06-2010 06:11:04 16.2 C 9.38 g/m*3 16.2 C 0 km/h
152 28-06-2010 06:23:04 16.4 C 9.49 g/m*3 16.4 C 0 km/h
153 28-06-2010 06:35:04 16.5 C 9.41 g/m*3 16.5 C 0 km/h
154 28-06-2010 06:47:04 16.6 C 9.61 g/m*3 16.6 C 0 km/h
155 28-06-2010 06:59:04 16.4 C 9.49 g/m*3 16.4 C 0 km/h
156 28-06-2010 07:11:02 16.2 C 9.52 g/m*3 16.2 C 0 km/h
157 28-06-2010 07:23:02 16.4 C 9.63 g/m*3 16.4 C 0 km/h
158 28-06-2010 07:35:02 16.8 C 9.87 g/m*3 16.8 C 0 km/h
159 28-06-2010 07:47:03 17.4 C 9.78 g/m*3 17.4 C 0 km/h
160 28-06-2010 07:59:03 17.2 C 9.67 g/m*3 17.2 C 0 km/h
161 28-06-2010 08:11:02 17.5 C 9.69 g/m*3 17.5 C 0 km/h
162 28-06-2010 08:23:02 17.9 C 9.77 g/m*3 17.9 C 0 km/h
163 28-06-2010 08:35:02 18.1 C 9.58 g/m*3 18.1 C 0 km/h
164 28-06-2010 08:47:02 18.5 C 9.49 g/m*3 18.5 C 0 km/h
165 28-06-2010 08:59:02 19 C 9.45 g/m*3 19 C 0 km/h
166 28-06-2010 09:11:02 19.7 C 9.51 g/m*3 19.7 C 0 km/h
167 28-06-2010 09:23:02 20.4 C 9.73 g/m*3 20.4 C 0 km/h
168 28-06-2010 09:35:01 21.1 C 9.58 g/m*3 21.1 C 0 km/h
169 28-06-2010 09:47:02 22.1 C 9.76 g/m*3 22.1 C 0 km/h
170 28-06-2010 09:59:02 22.9 C 9.81 g/m*3 22.9 C 0 km/h
171 28-06-2010 10:11:01 23.7 C 9.84 g/m*3 23.7 C 0 km/h
172 28-06-2010 10:23:01 24.1 C 9.19 g/m*3 24.1 C 0 km/h
173 28-06-2010 10:35:02 25.5 C 9.71 g/m*3 25.5 C 0 km/h
174 28-06-2010 10:47:01 26.3 C 9.41 g/m*3 26.3 C 0 km/h
175 28-06-2010 10:59:01 26.7 C 10.12 g/m*3 26.7 C 0 km/h
Sensor: Nr:Datum:Temp:Abs-Feuchte:Windchill:Wind:
Aussen-T/F 176 28-06-2010 11:11:02 27.5 C 9.52 g/m*3 27.5 C 0 km/h
177 28-06-2010 11:23:02 28 C 10.06 g/m*3 28 C 0 km/h
178 28-06-2010 11:35:01 29 C 8.62 g/m*3 29 C 0 km/h
179 28-06-2010 11:47:02 29.8 C 8.1 g/m*3 29.8 C 0 km/h
180 28-06-2010 11:59:02 30.5 C 7.79 g/m*3 30.5 C 0 km/h
181 28-06-2010 12:11:01 30.9 C 7.64 g/m*3 30.9 C 0 km/h
182 28-06-2010 12:23:02 31.4 C 7.19 g/m*3 31.4 C 0 km/h
183 28-06-2010 12:35:01 31.7 C 6.64 g/m*3 31.7 C 0 km/h
184 28-06-2010 12:47:03 32.1 C 6.79 g/m*3 32.1 C 0 km/h
185 28-06-2010 12:59:03 32.4 C 6.9 g/m*3 32.4 C 0 km/h
186 28-06-2010 13:11:02 32.6 C 6.97 g/m*3 32.6 C 0 km/h
187 28-06-2010 13:23:03 33 C 7.12 g/m*3 33 C 0 km/h
188 28-06-2010 13:35:03 33.2 C 7.2 g/m*3 33.2 C 0 km/h
189 28-06-2010 13:47:02 33.3 C 7.23 g/m*3 33.3 C 0 km/h
190 28-06-2010 13:59:03 33.3 C 7.23 g/m*3 33.3 C 0 km/h
191 28-06-2010 14:11:02 32.6 C 6.97 g/m*3 32.6 C 0 km/h
192 28-06-2010 14:23:02 32.5 C 6.93 g/m*3 32.5 C 0 km/h
193 28-06-2010 14:35:03 32.1 C 6.79 g/m*3 32.1 C 0 km/h
194 28-06-2010 14:47:02 32.5 C 6.93 g/m*3 32.5 C 0 km/h
195 28-06-2010 14:59:02 32.9 C 7.08 g/m*3 32.9 C 0 km/h
196 28-06-2010 15:11:02 33.4 C 7.27 g/m*3 33.4 C 0 km/h
197 28-06-2010 15:23:02 32.1 C 6.79 g/m*3 32.1 C 0 km/h
198 28-06-2010 15:35:02 31.9 C 6.72 g/m*3 31.9 C 0 km/h
199 28-06-2010 15:47:01 32.4 C 6.9 g/m*3 32.4 C 0 km/h
200 28-06-2010 15:59:01 32.3 C 6.86 g/m*3 32.3 C 0 km/h
Sensor: Nr:Datum:Temp:Abs-Feuchte:Windchill:Wind:
Aussen-T/F 201 28-06-2010 16:11:02 32.4 C 6.9 g/m*3 32.4 C 0 km/h
202 28-06-2010 16:23:01 32.7 C 7.01 g/m*3 32.7 C 0 km/h
203 28-06-2010 16:35:02 33.2 C 7.2 g/m*3 33.2 C 0 km/h
204 28-06-2010 16:47:01 32.1 C 6.79 g/m*3 32.1 C 0 km/h
205 28-06-2010 16:59:01 33.3 C 7.23 g/m*3 33.3 C 0 km/h
206 28-06-2010 17:11:02 33.6 C 7.35 g/m*3 33.6 C 0 km/h
207 28-06-2010 17:23:01 34.2 C 7.58 g/m*3 34.2 C 0 km/h
208 28-06-2010 17:35:02 32.5 C 6.93 g/m*3 32.5 C 0 km/h
209 28-06-2010 17:47:01 32.7 C 7.01 g/m*3 32.7 C 0 km/h
210 28-06-2010 17:59:01 32.9 C 7.08 g/m*3 32.9 C 0 km/h
211 28-06-2010 18:11:02 33.3 C 7.23 g/m*3 33.3 C 0 km/h
212 28-06-2010 18:23:02 33 C 7.12 g/m*3 33 C 0 km/h
213 28-06-2010 18:35:02 32.7 C 7.01 g/m*3 32.7 C 0 km/h
214 28-06-2010 18:47:02 32.6 C 6.97 g/m*3 32.6 C 0 km/h
215 28-06-2010 18:59:02 32.4 C 6.9 g/m*3 32.4 C 0 km/h
216 28-06-2010 19:11:02 31.6 C 6.61 g/m*3 31.6 C 0 km/h
217 28-06-2010 19:23:02 31.7 C 6.64 g/m*3 31.7 C 0 km/h
218 28-06-2010 19:35:01 31.9 C 6.72 g/m*3 31.9 C 0 km/h
219 28-06-2010 19:47:02 31.5 C 6.57 g/m*3 31.5 C 0 km/h
220 28-06-2010 19:59:02 31.3 C 6.5 g/m*3 31.3 C 0 km/h
221 28-06-2010 20:11:01 31.2 C 6.47 g/m*3 31.2 C 0 km/h
222 28-06-2010 20:23:02 31 C 6.72 g/m*3 31 C 0 km/h
223 28-06-2010 20:35:01 30.6 C 7.2 g/m*3 30.6 C 0 km/h
224 28-06-2010 20:47:02 30.1 C 7.01 g/m*3 30.1 C 0 km/h
225 28-06-2010 20:59:02 29.5 C 6.79 g/m*3 29.5 C 0 km/h
Sensor: Nr:Datum:Temp:Abs-Feuchte:Windchill:Wind:
Aussen-T/F 226 28-06-2010 21:11:01 28.9 C 7.14 g/m*3 28.9 C 0 km/h
227 28-06-2010 21:23:01 28.2 C 7.15 g/m*3 28.2 C 0 km/h
228 28-06-2010 21:35:02 27.5 C 7.14 g/m*3 27.5 C 0 km/h
229 28-06-2010 21:47:02 27 C 7.21 g/m*3 27 C 0 km/h
230 28-06-2010 21:59:02 26.6 C 7.3 g/m*3 26.6 C 0 km/h
231 28-06-2010 22:11:02 26.5 C 7.26 g/m*3 26.5 C 0 km/h
232 28-06-2010 22:24:04 26.3 C 7.43 g/m*3 26.3 C 0 km/h
233 28-06-2010 22:36:04 26 C 7.55 g/m*3 26 C 0 km/h
234 28-06-2010 22:48:05 25.8 C 7.94 g/m*3 25.8 C 0 km/h
235 28-06-2010 23:00:05 25.4 C 8 g/m*3 25.4 C 0 km/h
236 28-06-2010 23:12:05 25.3 C 8.19 g/m*3 25.3 C 0 km/h
237 28-06-2010 23:24:05 25.1 C 8.33 g/m*3 25.1 C 0 km/h
238 28-06-2010 23:36:05 24.7 C 8.37 g/m*3 24.7 C 0 km/h
239 28-06-2010 23:48:05 24.4 C 8.46 g/m*3 24.4 C 0 km/h

Legende:
   Min
   Max


Maximal/Minimal-Werte vom 27.06.2010 - 28.06.2010

Sensor Min Max Avg
Temp
(Aussen-T/F)
14.8 °C
27-06-2010  07:10:02
34.2 °C
28-06-2010  17:23:01
24.87 °C
Abs-Feuchte
(Aussen-T/F)
6.27 g/m*3
27-06-2010  12:22:01
10.12 g/m*3
28-06-2010  10:59:01
7.99 g/m*3
Windchill
(Aussen-T/F)
14.8 C
27-06-2010  07:10:02
34.2 C
28-06-2010  17:23:01
24.77 C

Die Daten stammen von einer Davis Vantage Pro 2 Wetter-Station und werden unter Linux mit der Software wview2wettercgi und aufbereitet. Alle Angaben erfolgen ohne Gewähr für ihre Vollständigkeit oder Richtigkeit.
Kontakt: Rainer Krienke krienke@uni-koblenz.de . Meine Webseiten an der Uni Koblenz oder privat.
Version: $Revision: 0.78 $